sensor_id;sensor_type;location;lat;lon;timestamp;pressure;altitude;pressure_sealevel;temperature
64296;BMP280;51082;38.236;15.432;2022-07-15T00:00:33;101479.75;;;23.91
64296;BMP280;51082;38.236;15.432;2022-07-15T00:01:34;101485.09;;;23.91
64296;BMP280;51082;38.236;15.432;2022-07-15T00:02:37;101485.38;;;23.90
64296;BMP280;51082;38.236;15.432;2022-07-15T00:03:40;101485.09;;;23.86
64296;BMP280;51082;38.236;15.432;2022-07-15T00:04:43;101482.44;;;23.86
64296;BMP280;51082;38.236;15.432;2022-07-15T00:05:47;101478.69;;;23.87
64296;BMP280;51082;38.236;15.432;2022-07-15T00:06:50;101484.00;;;23.87
64296;BMP280;51082;38.236;15.432;2022-07-15T00:07:51;101481.34;;;23.87
64296;BMP280;51082;38.236;15.432;2022-07-15T00:08:54;101478.97;;;23.86
64296;BMP280;51082;38.236;15.432;2022-07-15T00:09:56;101475.50;;;23.75
64296;BMP280;51082;38.236;15.432;2022-07-15T00:11:16;101480.81;;;23.80
64296;BMP280;51082;38.236;15.432;2022-07-15T00:12:19;101479.22;;;23.74
64296;BMP280;51082;38.236;15.432;2022-07-15T00:13:20;101480.25;;;23.73
64296;BMP280;51082;38.236;15.432;2022-07-15T00:14:25;101476.03;;;23.77
64296;BMP280;51082;38.236;15.432;2022-07-15T00:15:29;101473.91;;;23.79
64296;BMP280;51082;38.236;15.432;2022-07-15T00:16:31;101469.91;;;23.76
64296;BMP280;51082;38.236;15.432;2022-07-15T00:17:33;101473.88;;;23.74
64296;BMP280;51082;38.236;15.432;2022-07-15T00:18:36;101473.88;;;23.69
64296;BMP280;51082;38.236;15.432;2022-07-15T00:19:40;101475.47;;;23.70
64296;BMP280;51082;38.236;15.432;2022-07-15T00:20:42;101480.25;;;23.63
64296;BMP280;51082;38.236;15.432;2022-07-15T00:21:46;101479.47;;;23.62
64296;BMP280;51082;38.236;15.432;2022-07-15T00:22:48;101473.59;;;23.65
64296;BMP280;51082;38.236;15.432;2022-07-15T00:23:51;101473.59;;;23.65
64296;BMP280;51082;38.236;15.432;2022-07-15T00:24:53;101479.72;;;23.61
64296;BMP280;51082;38.236;15.432;2022-07-15T00:25:56;101482.63;;;23.59
64296;BMP280;51082;38.236;15.432;2022-07-15T00:26:57;101482.09;;;23.57
64296;BMP280;51082;38.236;15.432;2022-07-15T00:28:01;101476.53;;;23.59
64296;BMP280;51082;38.236;15.432;2022-07-15T00:29:03;101478.63;;;23.57
64296;BMP280;51082;38.236;15.432;2022-07-15T00:30:07;101481.84;;;23.54
64296;BMP280;51082;38.236;15.432;2022-07-15T00:31:09;101471.69;;;23.51
64296;BMP280;51082;38.236;15.432;2022-07-15T00:32:11;101472.50;;;23.51
64296;BMP280;51082;38.236;15.432;2022-07-15T00:33:13;101471.41;;;23.47
64296;BMP280;51082;38.236;15.432;2022-07-15T00:34:16;101471.41;;;23.47
64296;BMP280;51082;38.236;15.432;2022-07-15T00:35:19;101465.31;;;23.47
64296;BMP280;51082;38.236;15.432;2022-07-15T00:36:22;101467.47;;;23.50
64296;BMP280;51082;38.236;15.432;2022-07-15T00:37:23;101469.84;;;23.46
64296;BMP280;51082;38.236;15.432;2022-07-15T00:38:26;101461.34;;;23.44
64296;BMP280;51082;38.236;15.432;2022-07-15T00:39:28;101461.81;;;23.36
64296;BMP280;51082;38.236;15.432;2022-07-15T00:40:31;101469.00;;;23.35
64296;BMP280;51082;38.236;15.432;2022-07-15T00:41:36;101469.03;;;23.40
64296;BMP280;51082;38.236;15.432;2022-07-15T00:42:39;101459.41;;;23.39
64296;BMP280;51082;38.236;15.432;2022-07-15T00:43:46;101463.94;;;23.39
64296;BMP280;51082;38.236;15.432;2022-07-15T00:44:49;101455.16;;;23.33
64296;BMP280;51082;38.236;15.432;2022-07-15T00:45:51;101461.03;;;23.35
64296;BMP280;51082;38.236;15.432;2022-07-15T00:46:54;101455.75;;;23.40
64296;BMP280;51082;38.236;15.432;2022-07-15T00:47:57;101454.13;;;23.34
64296;BMP280;51082;38.236;15.432;2022-07-15T00:49:00;101454.88;;;23.20
64296;BMP280;51082;38.236;15.432;2022-07-15T00:50:03;101457.53;;;23.25
64296;BMP280;51082;38.236;15.432;2022-07-15T00:51:07;101459.94;;;23.26
64296;BMP280;51082;38.236;15.432;2022-07-15T00:52:10;101454.38;;;23.33
64296;BMP280;51082;38.236;15.432;2022-07-15T00:53:16;101457.34;;;23.41
64296;BMP280;51082;38.236;15.432;2022-07-15T00:54:23;101456.81;;;23.45
64296;BMP280;51082;38.236;15.432;2022-07-15T00:55:25;101456.56;;;23.46
64296;BMP280;51082;38.236;15.432;2022-07-15T00:56:31;101459.13;;;23.26
64296;BMP280;51082;38.236;15.432;2022-07-15T00:57:36;101451.69;;;23.28
64296;BMP280;51082;38.236;15.432;2022-07-15T00:58:41;101451.97;;;23.26
64296;BMP280;51082;38.236;15.432;2022-07-15T00:59:44;101447.69;;;23.20
64296;BMP280;51082;38.236;15.432;2022-07-15T01:00:48;101448.75;;;23.24
64296;BMP280;51082;38.236;15.432;2022-07-15T01:01:52;101448.50;;;23.26
64296;BMP280;51082;38.236;15.432;2022-07-15T01:02:57;101450.84;;;23.17
64296;BMP280;51082;38.236;15.432;2022-07-15T01:03:59;101454.56;;;23.21
64296;BMP280;51082;38.236;15.432;2022-07-15T01:05:05;101454.31;;;23.18
64296;BMP280;51082;38.236;15.432;2022-07-15T01:06:08;101451.41;;;23.24
64296;BMP280;51082;38.236;15.432;2022-07-15T01:07:12;101453.50;;;23.12
64296;BMP280;51082;38.236;15.432;2022-07-15T01:08:14;101460.97;;;23.20
64296;BMP280;51082;38.236;15.432;2022-07-15T01:09:19;101461.50;;;23.22
64296;BMP280;51082;38.236;15.432;2022-07-15T01:10:22;101458.81;;;23.12
64296;BMP280;51082;38.236;15.432;2022-07-15T01:11:26;101451.41;;;23.19
64296;BMP280;51082;38.236;15.432;2022-07-15T01:12:27;101457.81;;;23.23
64296;BMP280;51082;38.236;15.432;2022-07-15T01:13:30;101459.88;;;23.21
64296;BMP280;51082;38.236;15.432;2022-07-15T01:14:32;101462.31;;;23.28
64296;BMP280;51082;38.236;15.432;2022-07-15T01:15:35;101456.69;;;23.14
64296;BMP280;51082;38.236;15.432;2022-07-15T01:16:36;101446.06;;;23.14
64296;BMP280;51082;38.236;15.432;2022-07-15T01:17:39;101455.88;;;23.14
64296;BMP280;51082;38.236;15.432;2022-07-15T01:18:42;101451.38;;;23.14
64296;BMP280;51082;38.236;15.432;2022-07-15T01:19:44;101456.16;;;23.17
64296;BMP280;51082;38.236;15.432;2022-07-15T01:20:47;101449.25;;;23.16
64296;BMP280;51082;38.236;15.432;2022-07-15T01:21:50;101453.50;;;23.12
64296;BMP280;51082;38.236;15.432;2022-07-15T01:22:52;101446.03;;;23.04
64296;BMP280;51082;38.236;15.432;2022-07-15T01:23:54;101440.94;;;23.02
64296;BMP280;51082;38.236;15.432;2022-07-15T01:24:56;101447.63;;;23.05
64296;BMP280;51082;38.236;15.432;2022-07-15T01:26:00;101443.91;;;23.06
64296;BMP280;51082;38.236;15.432;2022-07-15T01:27:01;101451.88;;;23.06
64296;BMP280;51082;38.236;15.432;2022-07-15T01:28:05;101447.38;;;23.12
64296;BMP280;51082;38.236;15.432;2022-07-15T01:29:08;101443.16;;;23.16
64296;BMP280;51082;38.236;15.432;2022-07-15T01:30:10;101448.72;;;23.09
64296;BMP280;51082;38.236;15.432;2022-07-15T01:31:13;101448.13;;;23.02
64296;BMP280;51082;38.236;15.432;2022-07-15T01:32:15;101444.97;;;23.05
64296;BMP280;51082;38.236;15.432;2022-07-15T01:33:18;101441.22;;;23.06
64296;BMP280;51082;38.236;15.432;2022-07-15T01:34:19;101448.72;;;23.09
64296;BMP280;51082;38.236;15.432;2022-07-15T01:35:22;101447.09;;;23.08
64296;BMP280;51082;38.236;15.432;2022-07-15T01:36:26;101436.47;;;23.08
64296;BMP280;51082;38.236;15.432;2022-07-15T01:37:28;101435.91;;;23.06
64296;BMP280;51082;38.236;15.432;2022-07-15T01:38:31;101443.41;;;23.09
64296;BMP280;51082;38.236;15.432;2022-07-15T01:39:32;101444.44;;;23.08
64296;BMP280;51082;38.236;15.432;2022-07-15T01:40:35;101438.56;;;23.06
64296;BMP280;51082;38.236;15.432;2022-07-15T01:41:37;101438.56;;;23.06
64296;BMP280;51082;38.236;15.432;2022-07-15T01:42:39;101441.22;;;23.06
64296;BMP280;51082;38.236;15.432;2022-07-15T01:43:42;101441.75;;;23.03
64296;BMP280;51082;38.236;15.432;2022-07-15T01:44:44;101431.69;;;23.05
64296;BMP280;51082;38.236;15.432;2022-07-15T01:45:47;101433.56;;;23.09
64296;BMP280;51082;38.236;15.432;2022-07-15T01:46:48;101442.59;;;23.08
64296;BMP280;51082;38.236;15.432;2022-07-15T01:47:51;101434.59;;;23.03
64296;BMP280;51082;38.236;15.432;2022-07-15T01:48:53;101432.75;;;23.04
64296;BMP280;51082;38.236;15.432;2022-07-15T01:50:14;101435.34;;;22.94
64296;BMP280;51082;38.236;15.432;2022-07-15T01:51:17;101433.75;;;22.93
64296;BMP280;51082;38.236;15.432;2022-07-15T01:52:20;101432.16;;;22.92
64296;BMP280;51082;38.236;15.432;2022-07-15T01:53:22;101430.56;;;22.91
64296;BMP280;51082;38.236;15.432;2022-07-15T01:54:26;101433.22;;;22.91
64296;BMP280;51082;38.236;15.432;2022-07-15T01:55:29;101431.34;;;22.91
64296;BMP280;51082;38.236;15.432;2022-07-15T01:56:30;101431.34;;;22.91
64296;BMP280;51082;38.236;15.432;2022-07-15T01:57:33;101440.66;;;22.94
64296;BMP280;51082;38.236;15.432;2022-07-15T01:58:36;101431.63;;;22.95
64296;BMP280;51082;38.236;15.432;2022-07-15T01:59:37;101425.28;;;22.96
64296;BMP280;51082;38.236;15.432;2022-07-15T02:00:40;101417.03;;;22.97
64296;BMP280;51082;38.236;15.432;2022-07-15T02:01:42;101423.13;;;22.93
64296;BMP280;51082;38.236;15.432;2022-07-15T02:02:45;101421.03;;;23.00
64296;BMP280;51082;38.236;15.432;2022-07-15T02:03:46;101430.31;;;22.97
64296;BMP280;51082;38.236;15.432;2022-07-15T02:04:49;101425.56;;;22.99
64296;BMP280;51082;38.236;15.432;2022-07-15T02:05:51;101422.59;;;22.91
64296;BMP280;51082;38.236;15.432;2022-07-15T02:06:54;101425.50;;;22.94
64296;BMP280;51082;38.236;15.432;2022-07-15T02:07:57;101420.72;;;22.91
64296;BMP280;51082;38.236;15.432;2022-07-15T02:08:59;101423.56;;;22.80
64296;BMP280;51082;38.236;15.432;2022-07-15T02:10:01;101416.88;;;22.72
64296;BMP280;51082;38.236;15.432;2022-07-15T02:11:05;101417.75;;;22.78
64296;BMP280;51082;38.236;15.432;2022-07-15T02:12:08;101416.88;;;22.72
64296;BMP280;51082;38.236;15.432;2022-07-15T02:13:12;101427.31;;;22.84
64296;BMP280;51082;38.236;15.432;2022-07-15T02:14:14;101431.88;;;22.88
64296;BMP280;51082;38.236;15.432;2022-07-15T02:15:17;101421.53;;;22.92
64296;BMP280;51082;38.236;15.432;2022-07-15T02:16:19;101422.84;;;22.89
64296;BMP280;51082;38.236;15.432;2022-07-15T02:17:21;101430.25;;;22.87
64296;BMP280;51082;38.236;15.432;2022-07-15T02:18:23;101426.25;;;22.85
64296;BMP280;51082;38.236;15.432;2022-07-15T02:19:26;101422.84;;;22.89
64296;BMP280;51082;38.236;15.432;2022-07-15T02:20:27;101428.16;;;22.89
64296;BMP280;51082;38.236;15.432;2022-07-15T02:21:30;101427.34;;;22.89
64296;BMP280;51082;38.236;15.432;2022-07-15T02:22:32;101428.16;;;22.89
64296;BMP280;51082;38.236;15.432;2022-07-15T02:23:36;101416.41;;;22.75
64296;BMP280;51082;38.236;15.432;2022-07-15T02:24:37;101429.38;;;22.77
64296;BMP280;51082;38.236;15.432;2022-07-15T02:25:40;101428.09;;;22.79
64296;BMP280;51082;38.236;15.432;2022-07-15T02:26:42;101427.31;;;22.84
64296;BMP280;51082;38.236;15.432;2022-07-15T02:27:46;101419.88;;;22.81
64296;BMP280;51082;38.236;15.432;2022-07-15T02:28:47;101424.41;;;22.85
64296;BMP280;51082;38.236;15.432;2022-07-15T02:29:50;101420.94;;;22.85
64296;BMP280;51082;38.236;15.432;2022-07-15T02:30:52;101424.09;;;22.77
64296;BMP280;51082;38.236;15.432;2022-07-15T02:31:54;101426.25;;;22.85
64296;BMP280;51082;38.236;15.432;2022-07-15T02:32:57;101425.50;;;22.89
64296;BMP280;51082;38.236;15.432;2022-07-15T02:33:59;101422.00;;;22.84
64296;BMP280;51082;38.236;15.432;2022-07-15T02:35:01;101422.81;;;22.84
64296;BMP280;51082;38.236;15.432;2022-07-15T02:36:04;101418.84;;;22.87
64296;BMP280;51082;38.236;15.432;2022-07-15T02:37:05;101424.94;;;22.87
64296;BMP280;51082;38.236;15.432;2022-07-15T02:38:08;101413.53;;;22.87
64296;BMP280;51082;38.236;15.432;2022-07-15T02:39:11;101416.72;;;22.89
64296;BMP280;51082;38.236;15.432;2022-07-15T02:40:14;101416.44;;;22.85
64296;BMP280;51082;38.236;15.432;2022-07-15T02:41:15;101421.25;;;22.88
64296;BMP280;51082;38.236;15.432;2022-07-15T02:42:18;101421.28;;;22.93
64296;BMP280;51082;38.236;15.432;2022-07-15T02:43:20;101411.44;;;22.94
64296;BMP280;51082;38.236;15.432;2022-07-15T02:44:23;101408.78;;;22.94
64296;BMP280;51082;38.236;15.432;2022-07-15T02:45:26;101420.19;;;22.94
64296;BMP280;51082;38.236;15.432;2022-07-15T02:46:29;101414.09;;;22.94
64296;BMP280;51082;38.236;15.432;2022-07-15T02:47:30;101412.50;;;22.93
64296;BMP280;51082;38.236;15.432;2022-07-15T02:48:33;101416.72;;;22.89
64296;BMP280;51082;38.236;15.432;2022-07-15T02:49:35;101413.53;;;22.87
64296;BMP280;51082;38.236;15.432;2022-07-15T02:50:38;101416.97;;;22.87
64296;BMP280;51082;38.236;15.432;2022-07-15T02:51:40;101418.34;;;22.90
64296;BMP280;51082;38.236;15.432;2022-07-15T02:52:43;101412.47;;;22.88
64296;BMP280;51082;38.236;15.432;2022-07-15T02:53:45;101418.88;;;22.92
64296;BMP280;51082;38.236;15.432;2022-07-15T02:54:49;101415.16;;;22.93
64296;BMP280;51082;38.236;15.432;2022-07-15T02:55:51;101419.94;;;22.91
64296;BMP280;51082;38.236;15.432;2022-07-15T02:56:53;101415.66;;;22.90
64296;BMP280;51082;38.236;15.432;2022-07-15T02:57:55;101418.34;;;22.90
64296;BMP280;51082;38.236;15.432;2022-07-15T02:58:58;101416.72;;;22.89
64296;BMP280;51082;38.236;15.432;2022-07-15T03:00:00;101413.28;;;22.88
64296;BMP280;51082;38.236;15.432;2022-07-15T03:01:02;101413.56;;;22.92
64296;BMP280;51082;38.236;15.432;2022-07-15T03:02:05;101408.25;;;22.92
64296;BMP280;51082;38.236;15.432;2022-07-15T03:03:07;101411.69;;;22.92
64296;BMP280;51082;38.236;15.432;2022-07-15T03:04:09;101410.34;;;22.90
64296;BMP280;51082;38.236;15.432;2022-07-15T03:05:11;101416.22;;;22.92
64296;BMP280;51082;38.236;15.432;2022-07-15T03:06:14;101414.88;;;22.94
64296;BMP280;51082;38.236;15.432;2022-07-15T03:07:17;101416.25;;;22.97
64296;BMP280;51082;38.236;15.432;2022-07-15T03:08:18;101413.00;;;22.90
64296;BMP280;51082;38.236;15.432;2022-07-15T03:09:21;101412.75;;;22.91
64296;BMP280;51082;38.236;15.432;2022-07-15T03:10:24;101413.78;;;22.90
64296;BMP280;51082;38.236;15.432;2022-07-15T03:11:27;101412.47;;;22.88
64296;BMP280;51082;38.236;15.432;2022-07-15T03:12:30;101411.91;;;22.81
64296;BMP280;51082;38.236;15.432;2022-07-15T03:13:32;101407.13;;;22.78
64296;BMP280;51082;38.236;15.432;2022-07-15T03:14:34;101404.47;;;22.78
64296;BMP280;51082;38.236;15.432;2022-07-15T03:15:36;101405.03;;;22.85
64296;BMP280;51082;38.236;15.432;2022-07-15T03:16:39;101403.41;;;22.79
64296;BMP280;51082;38.236;15.432;2022-07-15T03:17:40;101403.41;;;22.84
64296;BMP280;51082;38.236;15.432;2022-07-15T03:18:43;101406.31;;;22.77
64296;BMP280;51082;38.236;15.432;2022-07-15T03:19:44;101405.03;;;22.85
64296;BMP280;51082;38.236;15.432;2022-07-15T03:20:47;101401.53;;;22.79
64296;BMP280;51082;38.236;15.432;2022-07-15T03:21:50;101397.53;;;22.77
64296;BMP280;51082;38.236;15.432;2022-07-15T03:22:52;101403.91;;;22.75
64296;BMP280;51082;38.236;15.432;2022-07-15T03:23:54;101395.16;;;22.75
64296;BMP280;51082;38.236;15.432;2022-07-15T03:24:56;101407.91;;;22.73
64296;BMP280;51082;38.236;15.432;2022-07-15T03:26:00;101406.03;;;22.73
64296;BMP280;51082;38.236;15.432;2022-07-15T03:27:02;101395.94;;;22.75
64296;BMP280;51082;38.236;15.432;2022-07-15T03:28:05;101401.25;;;22.75
64296;BMP280;51082;38.236;15.432;2022-07-15T03:29:06;101409.50;;;22.74
64296;BMP280;51082;38.236;15.432;2022-07-15T03:30:10;101405.47;;;22.71
64296;BMP280;51082;38.236;15.432;2022-07-15T03:31:11;101409.25;;;22.81
64296;BMP280;51082;38.236;15.432;2022-07-15T03:32:14;101392.50;;;22.75
64296;BMP280;51082;38.236;15.432;2022-07-15T03:33:17;101404.72;;;22.81
64296;BMP280;51082;38.236;15.432;2022-07-15T03:34:19;101412.47;;;22.83
64296;BMP280;51082;38.236;15.432;2022-07-15T03:35:21;101404.19;;;22.79
64296;BMP280;51082;38.236;15.432;2022-07-15T03:36:24;101406.56;;;22.75
64296;BMP280;51082;38.236;15.432;2022-07-15T03:37:27;101406.06;;;22.79
64296;BMP280;51082;38.236;15.432;2022-07-15T03:38:28;101402.34;;;22.80
64296;BMP280;51082;38.236;15.432;2022-07-15T03:39:31;101407.66;;;22.80
64296;BMP280;51082;38.236;15.432;2022-07-15T03:40:32;101409.81;;;22.83
64296;BMP280;51082;38.236;15.432;2022-07-15T03:41:37;101405.03;;;22.85
64296;BMP280;51082;38.236;15.432;2022-07-15T03:42:38;101414.88;;;22.89
64296;BMP280;51082;38.236;15.432;2022-07-15T03:43:41;101409.25;;;22.81
64296;BMP280;51082;38.236;15.432;2022-07-15T03:44:42;101405.78;;;22.80
64296;BMP280;51082;38.236;15.432;2022-07-15T03:45:45;101406.06;;;22.79
64296;BMP280;51082;38.236;15.432;2022-07-15T03:46:47;101410.88;;;22.82
64296;BMP280;51082;38.236;15.432;2022-07-15T03:47:49;101415.63;;;22.85
64296;BMP280;51082;38.236;15.432;2022-07-15T03:48:51;101414.84;;;22.84
64296;BMP280;51082;38.236;15.432;2022-07-15T03:49:54;101414.59;;;22.86
64296;BMP280;51082;38.236;15.432;2022-07-15T03:50:56;101416.44;;;22.90
64296;BMP280;51082;38.236;15.432;2022-07-15T03:51:59;101410.91;;;22.92
64296;BMP280;51082;38.236;15.432;2022-07-15T03:53:00;101408.78;;;22.94
64296;BMP280;51082;38.236;15.432;2022-07-15T03:54:04;101414.84;;;22.84
64296;BMP280;51082;38.236;15.432;2022-07-15T03:55:07;101409.78;;;22.78
64296;BMP280;51082;38.236;15.432;2022-07-15T03:56:10;101407.34;;;22.76
64296;BMP280;51082;38.236;15.432;2022-07-15T03:57:13;101410.59;;;22.78
64296;BMP280;51082;38.236;15.432;2022-07-15T03:58:16;101414.03;;;22.84
64296;BMP280;51082;38.236;15.432;2022-07-15T03:59:19;101412.97;;;22.85
64296;BMP280;51082;38.236;15.432;2022-07-15T04:00:23;101410.03;;;22.81
64296;BMP280;51082;38.236;15.432;2022-07-15T04:01:24;101416.69;;;22.79
64296;BMP280;51082;38.236;15.432;2022-07-15T04:02:27;101410.81;;;22.77
64296;BMP280;51082;38.236;15.432;2022-07-15T04:03:29;101411.91;;;22.81
64296;BMP280;51082;38.236;15.432;2022-07-15T04:04:31;101418.84;;;22.82
64296;BMP280;51082;38.236;15.432;2022-07-15T04:05:33;101418.28;;;22.85
64296;BMP280;51082;38.236;15.432;2022-07-15T04:06:36;101407.16;;;22.88
64296;BMP280;51082;38.236;15.432;2022-07-15T04:07:37;101410.34;;;22.90
64296;BMP280;51082;38.236;15.432;2022-07-15T04:08:40;101411.94;;;22.86
64296;BMP280;51082;38.236;15.432;2022-07-15T04:09:42;101418.34;;;22.90
64296;BMP280;51082;38.236;15.432;2022-07-15T04:10:44;101412.22;;;22.89
64296;BMP280;51082;38.236;15.432;2022-07-15T04:11:46;101418.34;;;22.90
64296;BMP280;51082;38.236;15.432;2022-07-15T04:12:50;101419.94;;;22.91
64296;BMP280;51082;38.236;15.432;2022-07-15T04:13:52;101417.78;;;22.88
64296;BMP280;51082;38.236;15.432;2022-07-15T04:14:57;101416.72;;;22.89
64296;BMP280;51082;38.236;15.432;2022-07-15T04:17:00;101415.13;;;22.88
64296;BMP280;51082;38.236;15.432;2022-07-15T04:18:02;101419.63;;;22.87
64296;BMP280;51082;38.236;15.432;2022-07-15T04:19:04;101419.63;;;22.87
64296;BMP280;51082;38.236;15.432;2022-07-15T04:20:08;101429.47;;;22.87
64296;BMP280;51082;38.236;15.432;2022-07-15T04:21:10;101417.53;;;22.89
64296;BMP280;51082;38.236;15.432;2022-07-15T04:22:12;101413.06;;;22.95
64296;BMP280;51082;38.236;15.432;2022-07-15T04:23:14;101419.41;;;22.94
64296;BMP280;51082;38.236;15.432;2022-07-15T04:24:17;101418.13;;;23.01
64296;BMP280;51082;38.236;15.432;2022-07-15T04:25:20;101411.50;;;23.04
64296;BMP280;51082;38.236;15.432;2022-07-15T04:26:22;101423.16;;;23.03
64296;BMP280;51082;38.236;15.432;2022-07-15T04:27:24;101418.66;;;23.03
64296;BMP280;51082;38.236;15.432;2022-07-15T04:28:28;101416.25;;;23.02
64296;BMP280;51082;38.236;15.432;2022-07-15T04:29:30;101413.63;;;23.07
64296;BMP280;51082;38.236;15.432;2022-07-15T04:30:33;101425.31;;;23.06
64296;BMP280;51082;38.236;15.432;2022-07-15T04:31:35;101421.56;;;23.02
64296;BMP280;51082;38.236;15.432;2022-07-15T04:32:37;101415.72;;;23.00
64296;BMP280;51082;38.236;15.432;2022-07-15T04:33:39;101421.56;;;23.02
64296;BMP280;51082;38.236;15.432;2022-07-15T04:34:42;101426.09;;;23.01
64296;BMP280;51082;38.236;15.432;2022-07-15T04:35:43;101423.19;;;23.08
64296;BMP280;51082;38.236;15.432;2022-07-15T04:36:46;101424.53;;;23.11
64296;BMP280;51082;38.236;15.432;2022-07-15T04:37:48;101430.13;;;23.09
64296;BMP280;51082;38.236;15.432;2022-07-15T04:38:50;101428.53;;;23.13
64296;BMP280;51082;38.236;15.432;2022-07-15T04:39:52;101429.56;;;23.17
64296;BMP280;51082;38.236;15.432;2022-07-15T04:40:55;101433.88;;;23.18
64296;BMP280;51082;38.236;15.432;2022-07-15T04:41:57;101432.81;;;23.19
64296;BMP280;51082;38.236;15.432;2022-07-15T04:43:00;101428.56;;;23.23
64296;BMP280;51082;38.236;15.432;2022-07-15T04:44:03;101433.31;;;23.16
64296;BMP280;51082;38.236;15.432;2022-07-15T04:45:07;101434.41;;;23.20
64296;BMP280;51082;38.236;15.432;2022-07-15T04:46:08;101435.97;;;23.16
64296;BMP280;51082;38.236;15.432;2022-07-15T04:47:11;101433.31;;;23.16
64296;BMP280;51082;38.236;15.432;2022-07-15T04:48:13;101433.31;;;23.21
64296;BMP280;51082;38.236;15.432;2022-07-15T04:49:32;101442.66;;;23.29
64296;BMP280;51082;38.236;15.432;2022-07-15T04:50:52;101436.28;;;23.30
64296;BMP280;51082;38.236;15.432;2022-07-15T04:51:55;101435.75;;;23.28
64296;BMP280;51082;38.236;15.432;2022-07-15T04:52:57;101432.31;;;23.32
64296;BMP280;51082;38.236;15.432;2022-07-15T04:53:59;101437.91;;;23.36
64296;BMP280;51082;38.236;15.432;2022-07-15T04:55:01;101429.16;;;23.40
64296;BMP280;51082;38.236;15.432;2022-07-15T04:56:04;101428.09;;;23.47
64296;BMP280;51082;38.236;15.432;2022-07-15T04:57:06;101433.41;;;23.47
64296;BMP280;51082;38.236;15.432;2022-07-15T04:58:09;101428.66;;;23.49
64296;BMP280;51082;38.236;15.432;2022-07-15T04:59:12;101428.38;;;23.50
64296;BMP280;51082;38.236;15.432;2022-07-15T05:00:15;101433.69;;;23.50
64296;BMP280;51082;38.236;15.432;2022-07-15T05:01:16;101431.56;;;23.52
64296;BMP280;51082;38.236;15.432;2022-07-15T05:02:19;101428.69;;;23.54
64296;BMP280;51082;38.236;15.432;2022-07-15T05:03:20;101431.84;;;23.56
64296;BMP280;51082;38.236;15.432;2022-07-15T05:04:23;101429.72;;;23.58
64296;BMP280;51082;38.236;15.432;2022-07-15T05:05:25;101434.56;;;23.71
64296;BMP280;51082;38.236;15.432;2022-07-15T05:06:27;101432.66;;;23.87
64296;BMP280;51082;38.236;15.432;2022-07-15T05:07:29;101429.22;;;24.01
64296;BMP280;51082;38.236;15.432;2022-07-15T05:08:32;101427.09;;;24.13
64296;BMP280;51082;38.236;15.432;2022-07-15T05:09:34;101428.41;;;24.36
64296;BMP280;51082;38.236;15.432;2022-07-15T05:10:37;101425.94;;;24.60
64296;BMP280;51082;38.236;15.432;2022-07-15T05:11:38;101433.13;;;24.75
64296;BMP280;51082;38.236;15.432;2022-07-15T05:12:41;101426.97;;;24.85
64296;BMP280;51082;38.236;15.432;2022-07-15T05:13:42;101437.28;;;25.01
64296;BMP280;51082;38.236;15.432;2022-07-15T05:14:47;101443.28;;;25.27
64296;BMP280;51082;38.236;15.432;2022-07-15T05:15:48;101430.84;;;25.51
64296;BMP280;51082;38.236;15.432;2022-07-15T05:16:51;101436.34;;;25.65
64296;BMP280;51082;38.236;15.432;2022-07-15T05:17:53;101437.66;;;25.73
64296;BMP280;51082;38.236;15.432;2022-07-15T05:18:56;101432.75;;;25.85
64296;BMP280;51082;38.236;15.432;2022-07-15T05:20:01;101433.81;;;25.84
64296;BMP280;51082;38.236;15.432;2022-07-15T05:21:04;101432.63;;;26.00
64296;BMP280;51082;38.236;15.432;2022-07-15T05:22:06;101435.19;;;26.10
64296;BMP280;51082;38.236;15.432;2022-07-15T05:23:09;101436.47;;;26.18
64296;BMP280;51082;38.236;15.432;2022-07-15T05:24:11;101437.25;;;26.42
64296;BMP280;51082;38.236;15.432;2022-07-15T05:25:15;101436.34;;;26.52
64296;BMP280;51082;38.236;15.432;2022-07-15T05:26:17;101437.84;;;26.63
64296;BMP280;51082;38.236;15.432;2022-07-15T05:27:21;101437.28;;;26.61
64296;BMP280;51082;38.236;15.432;2022-07-15T05:28:23;101428.22;;;26.62
64296;BMP280;51082;38.236;15.432;2022-07-15T05:29:26;101434.56;;;26.66
64296;BMP280;51082;38.236;15.432;2022-07-15T05:30:29;101434.28;;;26.68
64296;BMP280;51082;38.236;15.432;2022-07-15T05:31:32;101429.03;;;26.63
64296;BMP280;51082;38.236;15.432;2022-07-15T05:32:34;101435.97;;;26.64
64296;BMP280;51082;38.236;15.432;2022-07-15T05:33:37;101429.03;;;26.63
64296;BMP280;51082;38.236;15.432;2022-07-15T05:34:38;101436.69;;;26.69
64296;BMP280;51082;38.236;15.432;2022-07-15T05:35:41;101430.78;;;26.72
64296;BMP280;51082;38.236;15.432;2022-07-15T05:36:43;101431.50;;;26.78
64296;BMP280;51082;38.236;15.432;2022-07-15T05:37:46;101424.38;;;26.92
64296;BMP280;51082;38.236;15.432;2022-07-15T05:38:48;101432.28;;;26.97
64296;BMP280;51082;38.236;15.432;2022-07-15T05:39:50;101427.50;;;26.99
64296;BMP280;51082;38.236;15.432;2022-07-15T05:40:55;101427.28;;;26.95
64296;BMP280;51082;38.236;15.432;2022-07-15T05:41:58;101429.50;;;27.07
64296;BMP280;51082;38.236;15.432;2022-07-15T05:42:59;101425.31;;;27.01
64296;BMP280;51082;38.236;15.432;2022-07-15T05:44:02;101431.59;;;27.10
64296;BMP280;51082;38.236;15.432;2022-07-15T05:45:05;101433.31;;;27.20
64296;BMP280;51082;38.236;15.432;2022-07-15T05:46:09;101430.16;;;27.18
64296;BMP280;51082;38.236;15.432;2022-07-15T05:47:13;101434.25;;;27.10
64296;BMP280;51082;38.236;15.432;2022-07-15T05:48:14;101442.03;;;27.12
64296;BMP280;51082;38.236;15.432;2022-07-15T05:49:17;101434.56;;;27.09
64296;BMP280;51082;38.236;15.432;2022-07-15T05:50:19;101431.91;;;27.09
64296;BMP280;51082;38.236;15.432;2022-07-15T05:51:22;101439.03;;;27.13
64296;BMP280;51082;38.236;15.432;2022-07-15T05:52:24;101438.75;;;27.15